Time;durP1;ratioP1;P1;durP2;ratioP2;P2;SDS_P1;SDS_P2;PMS_P1;PMS_P2;Temp;Humidity;BMP_temperature;BMP_pressure;BME280_temperature;BME280_humidity;BME280_pressure;Samples;Min_cycle;Max_cycle;Signal;HPM_P1;HPM_P2
2023/11/20 00:01:33;;;;;;;32.55;5.38;;;11.80;99.90;;;;;;5045149;28;20036;-81
2023/11/20 00:04:00;;;;;;;27.88;4.45;;;11.80;99.90;;;;;;5045143;28;20454;-82
2023/11/20 00:06:30;;;;;;;42.65;5.80;;;11.80;99.90;;;;;;5043789;28;20027;-82
2023/11/20 00:08:57;;;;;;;30.02;5.28;;;11.80;99.90;;;;;;5045818;28;20486;-82
2023/11/20 00:11:23;;;;;;;36.08;5.55;;;11.70;99.90;;;;;;5043541;28;20124;-81
2023/11/20 00:13:49;;;;;;;38.15;5.38;;;11.80;99.90;;;;;;5045568;28;20376;-81
2023/11/20 00:16:15;;;;;;;46.20;6.40;;;11.70;99.90;;;;;;5043393;28;20041;-82
2023/11/20 00:18:41;;;;;;;28.83;4.65;;;11.80;99.90;;;;;;5044993;28;20025;-82
2023/11/20 00:21:07;;;;;;;39.17;5.15;;;11.70;99.90;;;;;;5044911;28;20052;-81
2023/11/20 00:23:32;;;;;;;39.03;5.38;;;11.70;99.90;;;;;;5043852;28;20039;-82
2023/11/20 00:25:58;;;;;;;28.33;4.88;;;11.70;99.90;;;;;;5044852;28;20029;-82
2023/11/20 00:28:24;;;;;;;36.03;5.88;;;11.70;99.90;;;;;;5042901;28;20471;-83
2023/11/20 00:30:50;;;;;;;35.25;5.20;;;11.70;99.90;;;;;;5044720;28;20059;-83
2023/11/20 00:33:15;;;;;;;30.70;4.78;;;11.70;99.90;;;;;;5061118;28;20239;-82
2023/11/20 00:35:41;;;;;;;45.30;5.93;;;11.70;99.90;;;;;;5045064;28;20031;-83
2023/11/20 00:38:08;;;;;;;33.15;5.32;;;11.70;99.90;;;;;;5062619;28;20024;-83
2023/11/20 00:40:33;;;;;;;38.60;6.15;;;11.70;99.90;;;;;;5062079;28;20032;-83
2023/11/20 00:43:00;;;;;;;23.63;4.72;;;11.70;99.90;;;;;;5044939;28;20037;-82
2023/11/20 00:45:26;;;;;;;27.65;4.95;;;11.70;99.90;;;;;;5042590;28;20526;-83
2023/11/20 00:47:52;;;;;;;27.70;4.63;;;11.70;99.90;;;;;;5045133;28;20482;-83
2023/11/20 00:50:17;;;;;;;20.85;4.90;;;11.60;99.90;;;;;;5042863;28;20055;-83
2023/11/20 00:52:44;;;;;;;21.88;4.78;;;11.60;99.90;;;;;;5045032;28;20398;-83
2023/11/20 00:55:10;;;;;;;29.42;5.72;;;11.60;99.90;;;;;;5043645;28;20079;-83
2023/11/20 00:57:37;;;;;;;29.60;4.57;;;11.60;99.90;;;;;;5043769;28;20025;-83
2023/11/20 01:00:06;;;;;;;22.10;5.63;;;11.60;99.90;;;;;;5044553;28;20063;-83
2023/11/20 01:02:32;;;;;;;30.73;5.25;;;11.60;99.90;;;;;;5042985;28;20094;-83
2023/11/20 01:04:57;;;;;;;23.80;6.00;;;11.60;99.90;;;;;;5044547;28;20441;-83
2023/11/20 01:07:23;;;;;;;23.70;5.22;;;11.60;99.90;;;;;;5042824;28;20070;-84
2023/11/20 01:09:49;;;;;;;28.20;4.95;;;11.60;99.90;;;;;;5045123;28;20447;-83
2023/11/20 01:12:15;;;;;;;22.45;4.57;;;11.60;99.90;;;;;;5044058;28;20418;-83
2023/11/20 01:14:40;;;;;;;23.55;4.93;;;11.50;99.90;;;;;;5061402;28;20025;-83
2023/11/20 01:17:06;;;;;;;20.45;4.40;;;11.50;99.90;;;;;;5044713;28;20021;-83
2023/11/20 01:19:32;;;;;;;28.67;5.22;;;11.50;99.90;;;;;;5042677;28;20057;-83
2023/11/20 01:21:57;;;;;;;21.63;4.78;;;11.60;99.90;;;;;;5044397;28;20053;-83
2023/11/20 01:24:23;;;;;;;32.47;5.47;;;11.60;99.90;;;;;;5042291;28;20067;-83
2023/11/20 01:26:49;;;;;;;24.52;5.68;;;11.50;99.90;;;;;;5044593;28;20025;-83
2023/11/20 01:29:15;;;;;;;24.08;5.28;;;11.50;99.90;;;;;;5042153;28;20039;-84
2023/11/20 01:31:41;;;;;;;23.52;5.80;;;11.50;99.90;;;;;;5044061;28;20022;-84
2023/11/20 01:34:06;;;;;;;25.20;5.97;;;11.50;99.90;;;;;;5044394;28;20025;-84
2023/11/20 01:36:32;;;;;;;28.25;5.97;;;11.50;99.90;;;;;;5044867;28;20048;-84
2023/11/20 01:38:58;;;;;;;38.45;6.95;;;11.50;99.90;;;;;;5048250;28;20025;-84
2023/11/20 01:41:23;;;;;;;28.45;6.25;;;11.50;99.90;;;;;;5046349;28;20033;-84
2023/11/20 01:43:50;;;;;;;33.55;6.50;;;11.50;99.90;;;;;;5048016;28;20060;-84
2023/11/20 01:46:16;;;;;;;26.33;5.35;;;11.50;99.90;;;;;;5064563;28;20021;-84
2023/11/20 01:48:45;;;;;;;31.35;5.15;;;11.50;99.90;;;;;;5048084;28;20092;-84
2023/11/20 01:51:10;;;;;;;24.40;4.65;;;11.50;99.90;;;;;;5048051;28;20040;-82
2023/11/20 01:53:39;;;;;;;33.22;4.60;;;11.50;99.90;;;;;;5046589;28;20017;-83
2023/11/20 01:56:06;;;;;;;21.17;4.50;;;11.50;99.90;;;;;;5047965;28;20471;-84
2023/11/20 01:58:33;;;;;;;30.02;5.22;;;11.50;99.90;;;;;;5045496;28;20021;-82
2023/11/20 02:00:59;;;;;;;28.30;4.68;;;11.50;99.90;;;;;;5066124;28;20021;-84
2023/11/20 02:03:25;;;;;;;25.80;4.30;;;11.40;99.90;;;;;;5046176;28;20071;-83
2023/11/20 02:05:50;;;;;;;33.13;6.65;;;11.50;99.90;;;;;;5047483;28;20025;-83
2023/11/20 02:08:17;;;;;;;23.98;4.20;;;11.50;99.90;;;;;;5047213;28;20112;-83
2023/11/20 02:10:43;;;;;;;29.50;3.83;;;11.40;99.90;;;;;;5045727;28;20112;-83
2023/11/20 02:13:09;;;;;;;32.25;4.38;;;11.40;99.90;;;;;;5047748;28;20017;-83
2023/11/20 02:15:35;;;;;;;24.65;3.58;;;11.40;99.90;;;;;;5045629;28;20071;-83
2023/11/20 02:18:01;;;;;;;31.17;3.72;;;11.40;99.90;;;;;;5047662;28;20104;-83
2023/11/20 02:20:27;;;;;;;31.58;3.80;;;11.40;99.90;;;;;;5045935;28;20017;-83
2023/11/20 02:22:52;;;;;;;29.17;3.90;;;11.40;99.90;;;;;;5047113;28;20041;-84
2023/11/20 02:25:18;;;;;;;21.02;2.85;;;11.30;99.90;;;;;;5046834;28;20077;-84
2023/11/20 02:28:05;;;;;;;20.90;2.80;;;11.30;99.90;;;;;;5045717;28;20118;-85
2023/11/20 02:30:31;;;;;;;28.30;2.65;;;11.30;99.90;;;;;;5047664;28;20029;-83
2023/11/20 02:32:57;;;;;;;20.98;2.95;;;11.30;99.90;;;;;;5045386;28;20045;-83
2023/11/20 02:35:24;;;;;;;17.83;3.35;;;11.20;99.90;;;;;;5047404;28;20021;-83
2023/11/20 02:37:50;;;;;;;20.40;3.20;;;11.30;99.90;;;;;;5045832;28;20024;-82
2023/11/20 02:40:16;;;;;;;23.98;3.60;;;11.30;99.90;;;;;;5045888;28;20025;-81
2023/11/20 02:42:41;;;;;;;23.20;2.58;;;11.30;99.90;;;;;;5065049;28;20036;-82
2023/11/20 02:45:10;;;;;;;22.15;3.17;;;11.20;99.90;;;;;;5045303;28;20041;-82
2023/11/20 02:47:36;;;;;;;22.10;3.33;;;11.20;99.90;;;;;;5046320;28;20564;-82
2023/11/20 02:50:02;;;;;;;23.30;3.45;;;11.20;99.90;;;;;;5045147;28;20029;-82
2023/11/20 02:52:30;;;;;;;21.13;2.40;;;11.20;99.90;;;;;;5047028;28;20044;-82
2023/11/20 02:54:55;;;;;;;24.00;3.00;;;11.20;99.90;;;;;;5045558;28;20017;-84
2023/11/20 02:57:21;;;;;;;22.60;3.42;;;11.20;99.90;;;;;;5046327;28;20032;-82
2023/11/20 02:59:47;;;;;;;23.70;3.60;;;11.20;99.90;;;;;;5064684;28;20033;-82
2023/11/20 03:02:15;;;;;;;19.25;2.83;;;11.20;99.90;;;;;;5063139;28;20028;-82
2023/11/20 03:04:43;;;;;;;26.73;3.28;;;11.10;99.90;;;;;;5046872;28;20029;-82
2023/11/20 03:07:08;;;;;;;22.90;3.78;;;11.20;99.90;;;;;;5044489;28;20025;-81
2023/11/20 03:09:34;;;;;;;22.85;3.42;;;11.10;99.90;;;;;;5064249;28;20054;-81
2023/11/20 03:11:59;;;;;;;22.45;3.58;;;11.10;99.90;;;;;;5063125;28;20036;-81
2023/11/20 03:14:25;;;;;;;23.38;4.05;;;11.10;99.90;;;;;;5046331;28;20025;-81
2023/11/20 03:16:51;;;;;;;30.13;3.67;;;11.10;99.90;;;;;;5064336;28;20033;-82
2023/11/20 03:19:16;;;;;;;25.80;3.38;;;11.10;99.90;;;;;;5045123;28;20093;-82
2023/11/20 03:21:43;;;;;;;20.17;3.40;;;11.10;99.90;;;;;;5042716;28;20457;-81
2023/11/20 03:24:09;;;;;;;25.55;5.15;;;11.10;99.90;;;;;;5040827;28;20029;-81
2023/11/20 03:26:35;;;;;;;31.25;4.20;;;11.10;99.90;;;;;;5043083;28;20041;-83
2023/11/20 03:29:01;;;;;;;24.67;3.90;;;11.10;99.90;;;;;;5040973;28;20029;-82
2023/11/20 03:31:36;;;;;;;24.13;3.05;;;11.10;99.90;;;;;;5042588;28;20048;-82
2023/11/20 03:34:03;;;;;;;30.05;4.38;;;11.10;99.90;;;;;;5042570;28;20053;-83
2023/11/20 03:36:30;;;;;;;29.83;4.18;;;11.10;99.90;;;;;;5040727;28;20018;-83
2023/11/20 03:38:56;;;;;;;35.00;4.50;;;11.10;99.90;;;;;;5044120;28;20018;-83
2023/11/20 03:41:22;;;;;;;29.42;3.97;;;11.10;99.90;;;;;;5040691;28;20052;-82
2023/11/20 03:43:47;;;;;;;31.90;3.95;;;11.10;99.90;;;;;;5042821;28;20040;-83
2023/11/20 03:46:13;;;;;;;33.78;3.97;;;11.10;99.90;;;;;;5040582;28;20021;-83
2023/11/20 03:48:39;;;;;;;29.73;4.50;;;11.10;99.90;;;;;;5042444;28;20018;-83
2023/11/20 03:51:04;;;;;;;25.60;3.55;;;11.10;99.90;;;;;;5042262;28;20491;-83
2023/11/20 03:53:34;;;;;;;26.58;3.13;;;11.10;99.90;;;;;;5040894;28;20079;-83
2023/11/20 03:56:00;;;;;;;36.70;3.15;;;11.10;99.90;;;;;;5042707;28;20089;-83
2023/11/20 03:58:26;;;;;;;27.70;3.53;;;11.10;99.90;;;;;;5040488;28;20026;-83
2023/11/20 04:00:52;;;;;;;20.55;3.05;;;11.10;99.90;;;;;;5042554;28;20021;-83
2023/11/20 04:03:17;;;;;;;20.48;3.67;;;11.10;99.90;;;;;;5040430;28;20097;-82
2023/11/20 04:05:43;;;;;;;31.85;3.63;;;11.10;99.90;;;;;;5042113;28;20059;-83
2023/11/20 04:08:09;;;;;;;23.83;3.13;;;11.20;99.90;;;;;;5041445;28;20032;-82
2023/11/20 04:10:36;;;;;;;20.10;3.22;;;11.20;99.90;;;;;;5042214;28;20072;-82
2023/11/20 04:13:02;;;;;;;25.98;3.63;;;11.20;99.90;;;;;;5043641;28;20017;-82
2023/11/20 04:15:28;;;;;;;30.58;4.13;;;11.20;99.90;;;;;;5040105;28;20068;-82
2023/11/20 04:17:54;;;;;;;19.08;3.15;;;11.20;99.90;;;;;;5042078;28;20021;-82
2023/11/20 04:20:19;;;;;;;26.20;3.35;;;11.20;99.90;;;;;;5041792;28;20038;-82
2023/11/20 04:22:45;;;;;;;28.67;3.28;;;11.20;99.90;;;;;;5041348;28;20052;-82
2023/11/20 04:25:11;;;;;;;19.58;3.03;;;11.20;99.90;;;;;;5041187;28;20033;-82
2023/11/20 04:27:36;;;;;;;21.50;3.20;;;11.20;99.90;;;;;;5041830;28;20021;-82
2023/11/20 04:30:02;;;;;;;20.35;2.65;;;11.20;99.90;;;;;;5041524;28;20030;-83
2023/11/20 04:32:28;;;;;;;25.90;3.35;;;11.20;99.90;;;;;;5039946;28;20025;-83
2023/11/20 04:34:53;;;;;;;21.52;2.78;;;11.20;99.90;;;;;;5042224;28;20036;-82
2023/11/20 04:37:19;;;;;;;19.33;2.60;;;11.20;99.90;;;;;;5039919;28;20620;-82
2023/11/20 04:39:45;;;;;;;21.98;3.35;;;11.20;99.90;;;;;;5042185;28;20024;-83
2023/11/20 04:42:10;;;;;;;16.83;2.72;;;11.20;99.90;;;;;;5040943;28;20052;-83
2023/11/20 04:44:36;;;;;;;19.05;2.53;;;11.20;99.90;;;;;;5041201;28;20037;-82
2023/11/20 04:47:02;;;;;;;27.55;3.33;;;11.20;99.90;;;;;;5042811;28;20041;-82
2023/11/20 04:49:28;;;;;;;26.05;4.25;;;11.20;99.90;;;;;;5039578;28;20017;-82
2023/11/20 04:51:53;;;;;;;24.60;2.35;;;11.20;99.90;;;;;;5041480;28;20505;-83
2023/11/20 04:54:19;;;;;;;22.40;3.47;;;11.20;99.90;;;;;;5039843;28;20394;-82
2023/11/20 04:56:45;;;;;;;22.17;3.38;;;11.20;99.90;;;;;;5041392;28;20116;-82
2023/11/20 04:59:11;;;;;;;21.85;2.75;;;11.20;99.90;;;;;;5039989;28;20532;-82
2023/11/20 05:01:37;;;;;;;25.58;2.83;;;11.30;99.90;;;;;;5042187;28;20031;-83
2023/11/20 05:04:03;;;;;;;16.98;2.85;;;11.20;99.90;;;;;;5041012;28;20124;-83
2023/11/20 05:06:30;;;;;;;17.80;2.53;;;11.20;99.90;;;;;;5039469;28;20022;-82
2023/11/20 05:08:56;;;;;;;20.90;3.20;;;11.20;99.90;;;;;;5040991;28;20021;-82
2023/11/20 05:11:23;;;;;;;21.90;3.10;;;11.20;99.90;;;;;;5038867;28;20022;-82
2023/11/20 05:13:50;;;;;;;15.52;2.97;;;11.20;99.90;;;;;;5042740;28;20048;-82
2023/11/20 05:16:16;;;;;;;25.45;3.38;;;11.20;99.90;;;;;;5039587;28;20017;-83
2023/11/20 05:18:42;;;;;;;21.45;3.00;;;11.20;99.90;;;;;;5040760;28;20017;-82
2023/11/20 05:21:07;;;;;;;23.77;3.22;;;11.30;99.90;;;;;;5040748;28;20036;-83
2023/11/20 05:23:33;;;;;;;21.92;3.22;;;11.30;99.90;;;;;;5042588;28;20079;-83
2023/11/20 05:25:59;;;;;;;29.45;3.03;;;11.20;99.90;;;;;;5062301;28;20025;-83
2023/11/20 05:28:24;;;;;;;18.15;2.63;;;11.20;99.90;;;;;;5059923;28;20033;-83
2023/11/20 05:30:50;;;;;;;23.55;3.38;;;11.20;99.90;;;;;;5044232;28;20505;-82
2023/11/20 05:33:15;;;;;;;19.77;3.33;;;11.20;99.90;;;;;;5042787;28;20048;-82
2023/11/20 05:35:41;;;;;;;23.63;3.25;;;11.20;99.90;;;;;;5043703;28;20028;-82
2023/11/20 05:38:07;;;;;;;18.65;3.58;;;11.20;99.90;;;;;;5043993;28;20071;-83
2023/11/20 05:40:33;;;;;;;25.80;2.97;;;11.20;99.90;;;;;;5061056;28;20021;-82
2023/11/20 05:42:59;;;;;;;19.67;2.67;;;11.20;99.90;;;;;;5044247;28;20021;-82
2023/11/20 05:45:24;;;;;;;15.77;2.42;;;11.20;99.90;;;;;;5041754;28;20036;-82
2023/11/20 05:47:50;;;;;;;16.33;2.15;;;11.20;99.90;;;;;;5062898;28;20076;-82
2023/11/20 05:50:16;;;;;;;25.70;3.65;;;11.10;99.90;;;;;;5042614;28;20017;-82
2023/11/20 05:52:41;;;;;;;20.25;2.00;;;11.10;99.90;;;;;;5058752;28;20020;-82
2023/11/20 05:55:07;;;;;;;19.00;2.30;;;11.10;99.90;;;;;;5063165;28;20023;-83
2023/11/20 05:57:34;;;;;;;22.25;2.70;;;11.10;99.90;;;;;;5062652;28;20024;-85
2023/11/20 06:00:00;;;;;;;17.90;2.50;;;11.10;99.90;;;;;;5063679;28;20031;-81
2023/11/20 06:02:25;;;;;;;18.10;3.08;;;11.10;99.90;;;;;;5062055;28;20088;-82
2023/11/20 06:04:51;;;;;;;20.23;2.95;;;11.10;99.90;;;;;;5063914;28;20064;-83
2023/11/20 06:07:17;;;;;;;20.48;2.67;;;11.10;99.90;;;;;;5061868;28;20020;-81
2023/11/20 06:09:43;;;;;;;19.17;2.45;;;11.10;99.90;;;;;;5073144;28;20110;-82
2023/11/20 06:12:08;;;;;;;18.33;2.17;;;11.10;99.90;;;;;;5062636;28;20424;-82
2023/11/20 06:14:34;;;;;;;17.15;2.75;;;11.10;99.90;;;;;;5062216;28;20437;-81
2023/11/20 06:17:00;;;;;;;27.02;4.20;;;11.10;99.90;;;;;;5063516;28;20032;-81
2023/11/20 06:19:27;;;;;;;17.80;2.15;;;11.10;99.90;;;;;;5061399;28;20103;-82
2023/11/20 06:21:54;;;;;;;21.40;3.30;;;11.10;99.90;;;;;;5063486;28;20221;-82
2023/11/20 06:24:21;;;;;;;18.52;2.20;;;11.10;99.90;;;;;;5064558;28;20032;-82
2023/11/20 06:26:47;;;;;;;26.67;3.05;;;11.10;99.90;;;;;;5065340;28;20101;-82
2023/11/20 06:29:13;;;;;;;19.67;2.53;;;11.10;99.90;;;;;;5053095;28;20020;-81
2023/11/20 06:31:39;;;;;;;16.13;2.45;;;11.00;99.90;;;;;;5056828;28;20027;-81
2023/11/20 06:34:04;;;;;;;26.08;3.70;;;11.00;99.90;;;;;;5056369;28;20028;-82
2023/11/20 06:36:30;;;;;;;17.48;2.55;;;11.00;99.90;;;;;;5054569;28;20096;-81
2023/11/20 06:38:58;;;;;;;29.75;3.45;;;10.90;99.90;;;;;;5054889;28;20024;-82
2023/11/20 06:41:24;;;;;;;25.23;3.25;;;10.90;99.90;;;;;;5072560;28;20036;-81
2023/11/20 06:43:49;;;;;;;20.60;2.28;;;10.80;99.90;;;;;;5057258;28;20052;-81
2023/11/20 06:46:19;;;;;;;23.77;2.45;;;10.80;99.90;;;;;;5053805;28;20044;-82
2023/11/20 06:48:46;;;;;;;25.77;3.40;;;10.80;99.90;;;;;;5057564;28;20059;-83
2023/11/20 06:51:15;;;;;;;18.88;2.40;;;10.80;99.90;;;;;;5084842;28;20025;-82
2023/11/20 06:53:41;;;;;;;21.90;2.25;;;10.70;99.90;;;;;;5065080;28;20025;-82
2023/11/20 06:56:23;;;;;;;24.08;3.17;;;10.70;99.90;;;;;;5066965;28;20367;-82
2023/11/20 06:58:49;;;;;;;22.10;2.65;;;10.70;99.90;;;;;;5065055;28;20025;-80
2023/11/20 07:01:17;;;;;;;23.98;3.35;;;10.70;99.90;;;;;;5084477;28;20020;-82
2023/11/20 07:03:43;;;;;;;21.05;3.53;;;10.70;99.90;;;;;;5065863;28;20094;-81
2023/11/20 07:06:14;;;;;;;19.95;2.60;;;10.80;99.90;;;;;;5083078;28;20033;-82
2023/11/20 07:08:40;;;;;;;14.00;2.38;;;10.80;99.90;;;;;;5066421;28;20437;-82
2023/11/20 07:11:06;;;;;;;16.80;2.60;;;10.80;99.90;;;;;;5064580;28;20417;-82
2023/11/20 07:13:32;;;;;;;20.42;2.38;;;10.80;99.90;;;;;;5065537;28;20024;-82
2023/11/20 07:15:58;;;;;;;25.58;3.17;;;10.80;99.90;;;;;;5071081;28;20029;-82
2023/11/20 07:18:24;;;;;;;19.38;2.67;;;10.80;99.90;;;;;;5055350;28;20133;-82
2023/11/20 07:20:50;;;;;;;23.13;2.75;;;10.80;99.90;;;;;;5055184;28;20032;-82
2023/11/20 07:23:15;;;;;;;18.10;2.65;;;10.80;99.90;;;;;;5073577;28;20053;-82
2023/11/20 07:25:42;;;;;;;23.63;3.10;;;10.80;99.90;;;;;;5052763;28;20446;-82
2023/11/20 07:28:08;;;;;;;23.02;3.15;;;10.90;99.90;;;;;;5043702;28;20124;-82
2023/11/20 07:30:34;;;;;;;21.05;3.28;;;10.80;99.90;;;;;;5048592;28;20033;-82
2023/11/20 07:33:01;;;;;;;16.77;2.97;;;10.80;99.90;;;;;;5061980;28;20040;-81
2023/11/20 07:35:27;;;;;;;21.95;3.15;;;10.80;99.90;;;;;;5045387;28;20021;-82
2023/11/20 07:37:53;;;;;;;26.38;3.25;;;10.80;99.90;;;;;;5044806;28;20021;-81
2023/11/20 07:40:19;;;;;;;26.33;3.25;;;10.70;99.90;;;;;;5045054;28;20021;-81
2023/11/20 07:42:46;;;;;;;19.70;2.17;;;10.70;99.90;;;;;;5045677;28;20036;-81
2023/11/20 07:45:12;;;;;;;17.35;2.33;;;10.80;99.90;;;;;;5044072;28;20485;-81
2023/11/20 07:47:39;;;;;;;21.90;3.20;;;10.70;99.90;;;;;;5046160;28;20024;-82
2023/11/20 07:50:05;;;;;;;23.60;2.67;;;10.70;99.90;;;;;;5044137;28;20040;-82
2023/11/20 07:52:31;;;;;;;19.40;2.70;;;10.70;99.90;;;;;;5045879;28;20033;-82
2023/11/20 07:54:57;;;;;;;17.92;2.72;;;10.70;99.90;;;;;;5044578;28;20032;-81
2023/11/20 07:57:26;;;;;;;25.13;3.05;;;10.70;99.90;;;;;;5045020;28;20040;-82
2023/11/20 07:59:52;;;;;;;15.43;3.60;;;10.70;99.90;;;;;;5045285;28;20036;-83
2023/11/20 08:02:19;;;;;;;26.70;3.10;;;10.60;99.90;;;;;;5044341;28;20017;-82
2023/11/20 08:04:45;;;;;;;25.27;4.10;;;10.60;99.90;;;;;;5063899;28;20043;-81
2023/11/20 08:07:13;;;;;;;19.75;3.13;;;10.60;99.90;;;;;;5043829;28;20025;-82
2023/11/20 08:09:38;;;;;;;23.60;3.03;;;10.60;99.90;;;;;;5045437;28;20090;-83
2023/11/20 08:12:05;;;;;;;30.77;4.78;;;10.60;99.90;;;;;;5062415;28;20032;-82
2023/11/20 08:14:31;;;;;;;20.63;3.80;;;10.60;99.90;;;;;;5044543;28;20017;-81
2023/11/20 08:16:58;;;;;;;26.27;4.20;;;10.60;99.90;;;;;;5045132;28;20021;-81
2023/11/20 08:19:24;;;;;;;21.48;2.67;;;10.60;99.90;;;;;;5043449;28;20025;-81
2023/11/20 08:21:50;;;;;;;23.85;4.80;;;10.60;99.90;;;;;;5044963;28;20100;-81
2023/11/20 08:24:16;;;;;;;22.58;3.58;;;10.60;99.90;;;;;;5043100;28;20100;-81
2023/11/20 08:26:44;;;;;;;19.05;3.10;;;10.60;99.90;;;;;;5063267;28;20064;-82
2023/11/20 08:29:11;;;;;;;18.00;2.95;;;10.60;99.90;;;;;;5060881;28;20025;-81
2023/11/20 08:31:37;;;;;;;26.90;3.70;;;10.60;99.90;;;;;;5044343;28;20025;-81
2023/11/20 08:34:04;;;;;;;24.85;3.35;;;10.60;99.90;;;;;;5044716;28;20116;-81
2023/11/20 08:36:31;;;;;;;21.40;3.00;;;10.60;99.90;;;;;;5043246;28;20055;-82
2023/11/20 08:38:57;;;;;;;32.28;3.85;;;10.70;99.90;;;;;;5045149;28;20028;-82
2023/11/20 08:41:23;;;;;;;32.17;3.85;;;10.70;99.90;;;;;;5042627;28;20021;-81
2023/11/20 08:43:48;;;;;;;27.15;3.10;;;10.70;99.90;;;;;;5044855;28;20586;-82
2023/11/20 08:46:14;;;;;;;27.55;4.32;;;10.70;99.90;;;;;;5042879;28;20108;-82
2023/11/20 08:48:40;;;;;;;25.23;3.63;;;10.80;99.90;;;;;;5044245;28;20417;-82
2023/11/20 08:51:08;;;;;;;25.08;3.47;;;10.80;99.90;;;;;;5044700;28;20466;-82
2023/11/20 08:53:35;;;;;;;19.95;3.90;;;10.80;99.90;;;;;;5060680;28;20033;-81
2023/11/20 08:56:02;;;;;;;22.25;2.95;;;10.90;99.90;;;;;;5062784;28;20028;-82
2023/11/20 08:58:28;;;;;;;25.73;3.53;;;10.90;99.90;;;;;;5042523;28;20013;-82
2023/11/20 09:00:54;;;;;;;18.77;3.42;;;10.90;99.90;;;;;;5044788;28;20108;-82
2023/11/20 09:03:19;;;;;;;24.85;4.05;;;10.90;99.90;;;;;;5042933;28;20456;-82
2023/11/20 09:05:45;;;;;;;27.02;3.45;;;11.00;99.90;;;;;;5043858;28;20032;-81
2023/11/20 09:08:11;;;;;;;22.05;3.80;;;11.00;99.90;;;;;;5044461;28;20348;-82
2023/11/20 09:10:36;;;;;;;24.60;3.55;;;11.10;99.90;;;;;;5061153;28;20091;-82
2023/11/20 09:13:02;;;;;;;20.20;3.53;;;11.10;99.90;;;;;;5044343;28;20032;-81
2023/11/20 09:15:28;;;;;;;21.85;3.55;;;11.10;99.90;;;;;;5042489;28;20013;-82
2023/11/20 09:17:54;;;;;;;23.65;3.85;;;11.20;99.90;;;;;;5044315;28;20057;-81
2023/11/20 09:20:21;;;;;;;24.73;3.35;;;11.30;99.90;;;;;;5042907;28;20035;-82
2023/11/20 09:22:48;;;;;;;18.27;3.70;;;11.40;99.90;;;;;;5044085;28;20071;-82
2023/11/20 09:25:15;;;;;;;19.27;2.78;;;11.50;99.90;;;;;;5043951;28;20124;-81
2023/11/20 09:27:41;;;;;;;24.50;3.13;;;11.60;99.90;;;;;;5042000;28;20043;-82
2023/11/20 09:30:08;;;;;;;21.70;3.63;;;11.80;99.90;;;;;;5044357;28;20032;-82
2023/11/20 09:32:33;;;;;;;18.48;3.25;;;11.90;99.90;;;;;;5042300;28;20029;-82
2023/11/20 09:34:59;;;;;;;19.90;2.63;;;12.00;99.90;;;;;;5044396;28;20076;-82
2023/11/20 09:37:25;;;;;;;14.25;2.75;;;12.20;99.90;;;;;;5042795;28;20475;-82
2023/11/20 09:39:54;;;;;;;17.58;2.88;;;12.30;99.90;;;;;;5043871;28;20025;-81
2023/11/20 09:42:22;;;;;;;18.08;3.10;;;12.70;99.90;;;;;;5043546;28;20025;-82
2023/11/20 09:44:49;;;;;;;17.75;2.55;;;13.10;99.90;;;;;;5042587;28;20522;-82
2023/11/20 09:47:16;;;;;;;19.88;3.42;;;13.40;99.90;;;;;;5043755;28;20030;-82
2023/11/20 09:49:44;;;;;;;18.98;3.53;;;13.80;99.90;;;;;;5042152;28;20051;-81
2023/11/20 09:52:10;;;;;;;15.82;2.67;;;14.10;99.90;;;;;;5043932;28;20040;-81
2023/11/20 09:54:38;;;;;;;19.15;3.50;;;14.50;99.90;;;;;;5060508;28;20028;-82
2023/11/20 09:57:05;;;;;;;12.98;3.00;;;14.80;99.90;;;;;;5062787;28;20052;-82
2023/11/20 09:59:31;;;;;;;18.50;2.83;;;15.10;99.90;;;;;;5065704;28;20056;-81
2023/11/20 10:01:58;;;;;;;14.32;2.90;;;15.40;99.90;;;;;;5046150;28;20021;-82
2023/11/20 10:04:27;;;;;;;12.57;3.30;;;15.70;99.90;;;;;;5047250;28;20064;-82
2023/11/20 10:06:54;;;;;;;17.15;3.30;;;16.00;99.90;;;;;;5045945;28;20017;-82
2023/11/20 10:09:22;;;;;;;16.98;2.75;;;16.20;99.90;;;;;;5047622;28;20071;-81
2023/11/20 10:11:51;;;;;;;14.85;2.97;;;16.40;99.90;;;;;;5046394;28;20021;-82
2023/11/20 10:14:19;;;;;;;14.50;3.03;;;16.50;99.90;;;;;;5047216;28;20044;-82
2023/11/20 10:16:51;;;;;;;17.65;2.83;;;16.70;99.90;;;;;;5065250;28;20028;-81
2023/11/20 10:19:16;;;;;;;15.07;2.72;;;16.70;99.20;;;;;;5063914;28;20085;-82
2023/11/20 10:21:43;;;;;;;13.32;3.03;;;16.90;99.10;;;;;;5047456;28;20131;-82
2023/11/20 10:24:16;;;;;;;17.42;3.50;;;17.00;95.90;;;;;;5045092;28;20045;-81
2023/11/20 10:26:42;;;;;;;14.82;3.22;;;16.70;94.20;;;;;;5046882;28;20080;-81
2023/11/20 10:29:09;;;;;;;15.35;3.75;;;16.20;92.40;;;;;;5045670;28;20029;-80
2023/11/20 10:31:46;;;;;;;15.75;3.63;;;15.60;93.10;;;;;;5046710;28;20047;-81
2023/11/20 10:34:12;;;;;;;16.67;3.78;;;15.30;93.70;;;;;;5047299;28;20032;-81
2023/11/20 10:36:39;;;;;;;12.00;3.55;;;15.10;94.10;;;;;;5045609;28;20040;-81
2023/11/20 10:39:09;;;;;;;19.45;4.43;;;14.80;94.30;;;;;;5047048;28;20044;-81
2023/11/20 10:41:43;;;;;;;15.70;3.80;;;14.60;94.20;;;;;;5045236;28;20021;-82
2023/11/20 10:44:09;;;;;;;15.77;4.20;;;14.50;94.50;;;;;;5064770;28;20058;-81
2023/11/20 10:46:35;;;;;;;15.60;4.28;;;14.40;94.80;;;;;;5046484;28;20025;-81
2023/11/20 10:49:07;;;;;;;24.60;4.93;;;14.40;94.90;;;;;;5045842;28;20514;-82
2023/11/20 10:51:34;;;;;;;18.42;4.72;;;14.40;95.00;;;;;;5047083;28;20038;-81
2023/11/20 10:54:04;;;;;;;19.23;5.85;;;14.30;94.80;;;;;;5044513;28;20036;-81
2023/11/20 10:56:33;;;;;;;19.83;4.20;;;14.20;94.10;;;;;;5047171;28;20045;-81
2023/11/20 10:59:04;;;;;;;20.08;4.85;;;14.20;94.40;;;;;;5045478;28;20090;-81
2023/11/20 11:01:30;;;;;;;14.68;4.35;;;14.10;94.70;;;;;;5046422;28;20458;-81
2023/11/20 11:04:00;;;;;;;29.58;5.47;;;14.10;95.10;;;;;;5046316;28;20032;-81
2023/11/20 11:06:27;;;;;;;18.17;5.20;;;14.10;95.00;;;;;;5044810;28;20033;-81
2023/11/20 11:08:56;;;;;;;24.05;4.93;;;14.00;94.50;;;;;;5045829;28;20072;-81
2023/11/20 11:11:22;;;;;;;19.75;5.15;;;13.90;94.20;;;;;;5044714;28;20087;-81
2023/11/20 11:13:51;;;;;;;22.55;5.32;;;13.80;94.20;;;;;;5064740;28;20035;-81
2023/11/20 11:16:46;;;;;;;17.45;4.18;;;13.60;93.90;;;;;;5045081;28;20075;-81
2023/11/20 11:19:16;;;;;;;17.65;5.68;;;13.50;94.10;;;;;;5044924;28;20102;-81
2023/11/20 11:22:02;;;;;;;20.95;6.15;;;13.40;94.30;;;;;;5045888;28;20053;-81
2023/11/20 11:24:36;;;;;;;19.35;4.88;;;13.30;94.30;;;;;;5044373;28;20024;-81
2023/11/20 11:27:06;;;;;;;15.32;4.40;;;13.20;94.60;;;;;;5045664;28;20110;-82
2023/11/20 11:29:36;;;;;;;18.17;4.28;;;13.30;94.80;;;;;;5045801;28;20074;-81
2023/11/20 11:32:28;;;;;;;13.48;4.25;;;13.30;95.30;;;;;;5044970;28;20025;-83
2023/11/20 11:34:54;;;;;;;17.55;5.30;;;13.40;95.50;;;;;;5042076;28;20506;-81
2023/11/20 11:37:49;;;;;;;16.60;4.72;;;13.40;95.10;;;;;;5044446;28;20037;-81
2023/11/20 11:40:55;;;;;;;18.08;4.43;;;13.40;94.90;;;;;;5045564;28;20036;-82
2023/11/20 11:43:50;;;;;;;23.55;5.35;;;13.40;94.90;;;;;;5046084;28;20429;-81
2023/11/20 11:46:16;;;;;;;20.45;4.55;;;13.30;94.50;;;;;;5060245;28;20104;-81
2023/11/20 11:48:42;;;;;;;21.63;5.82;;;13.20;94.70;;;;;;5045277;28;20025;-81
2023/11/20 11:51:19;;;;;;;17.25;5.20;;;13.20;94.90;;;;;;5045657;28;20104;-82
2023/11/20 11:54:14;;;;;;;19.88;4.05;;;13.20;95.00;;;;;;5062023;28;20445;-81
2023/11/20 11:56:49;;;;;;;10.65;2.75;;;13.20;94.50;;;;;;5045680;28;20032;-81
2023/11/20 11:59:26;;;;;;;14.32;3.38;;;13.20;94.60;;;;;;5044461;28;20032;-82
2023/11/20 12:01:52;;;;;;;16.75;3.67;;;13.20;94.40;;;;;;5044342;28;20028;-81
2023/11/20 12:05:07;;;;;;;17.02;3.88;;;13.20;94.30;;;;;;5045459;28;20040;-81
2023/11/20 12:07:36;;;;;;;19.52;3.15;;;13.20;94.20;;;;;;5027658;28;20059;-80
2023/11/20 12:10:04;;;;;;;10.25;2.38;;;13.10;94.30;;;;;;5044772;28;20036;-81
2023/11/20 12:12:45;;;;;;;16.55;2.53;;;13.20;94.70;;;;;;5063387;28;20025;-81
2023/11/20 12:15:29;;;;;;;13.98;2.42;;;13.40;93.90;;;;;;5043595;28;20059;-81
2023/11/20 12:17:59;;;;;;;16.60;2.92;;;13.60;93.50;;;;;;5045250;28;20035;-81
2023/11/20 12:20:25;;;;;;;9.65;1.65;;;14.10;94.70;;;;;;5042696;28;20025;-81
2023/11/20 12:22:52;;;;;;;14.00;2.63;;;14.90;95.00;;;;;;5044474;28;20056;-81
2023/11/20 12:25:18;;;;;;;14.85;2.42;;;15.70;94.80;;;;;;5044540;28;20033;-81
2023/11/20 12:27:47;;;;;;;10.68;2.47;;;16.30;93.30;;;;;;5043061;28;20592;-81
2023/11/20 12:30:13;;;;;;;13.45;2.78;;;16.90;93.10;;;;;;5044989;28;20032;-82
2023/11/20 12:32:39;;;;;;;11.95;2.22;;;17.50;90.90;;;;;;5043193;28;20096;-81
2023/11/20 12:35:05;;;;;;;10.95;2.00;;;17.70;87.20;;;;;;5044833;28;20032;-82
2023/11/20 12:37:32;;;;;;;12.60;2.40;;;17.90;86.30;;;;;;5043252;28;20017;-82